createdAt,value
2023-03-12T00:02:12.789Z,99565.00
2023-03-12T00:04:39.572Z,99505.13
2023-03-12T00:07:07.650Z,99566.81
2023-03-12T00:09:39.407Z,99564.03
2023-03-12T00:12:06.897Z,99499.34
2023-03-12T00:14:33.816Z,99476.41
2023-03-12T00:17:00.595Z,99483.16
2023-03-12T00:19:27.495Z,99484.63
2023-03-12T00:21:54.151Z,99475.91
2023-03-12T00:24:20.945Z,99492.50
2023-03-12T00:26:47.925Z,99495.53
2023-03-12T00:29:14.901Z,99504.78
2023-03-12T00:31:41.786Z,99450.06
2023-03-12T00:34:10.550Z,99460.72
2023-03-12T00:36:37.323Z,99473.91
2023-03-12T00:39:04.313Z,99442.22
2023-03-12T00:41:31.280Z,99441.31
2023-03-12T00:43:58.149Z,99399.75
2023-03-12T00:46:25.116Z,99431.00
2023-03-12T00:48:52.007Z,99433.84
2023-03-12T00:51:19.145Z,99459.72
2023-03-12T00:53:46.182Z,99434.97
2023-03-12T00:56:13.042Z,99387.16
2023-03-12T00:58:39.842Z,99408.69
2023-03-12T01:01:06.634Z,99411.94
2023-03-12T01:03:33.718Z,99421.19
2023-03-12T01:06:00.720Z,99383.47
2023-03-12T01:08:27.442Z,99346.53
2023-03-12T01:10:54.190Z,99340.88
2023-03-12T01:13:21.157Z,99345.00
2023-03-12T01:15:47.893Z,99379.69
2023-03-12T01:18:14.636Z,99326.63
2023-03-12T01:20:41.976Z,99326.34
2023-03-12T01:23:09.451Z,99393.53
2023-03-12T01:25:37.097Z,99349.69
2023-03-12T01:28:04.599Z,99369.22
2023-03-12T01:30:31.674Z,99325.56
2023-03-12T01:32:58.706Z,99375.50
2023-03-12T01:35:25.589Z,99333.72
2023-03-12T01:37:53.169Z,99265.38
2023-03-12T01:40:25.492Z,99336.94
2023-03-12T01:42:57.015Z,99349.78
2023-03-12T01:46:01.283Z,99332.09
2023-03-12T01:48:32.192Z,99323.56
2023-03-12T01:51:00.576Z,99289.34
2023-03-12T01:53:28.514Z,99216.66
2023-03-12T01:55:55.716Z,99249.75
2023-03-12T01:58:22.785Z,99250.88
2023-03-12T02:00:49.522Z,99314.31
2023-03-12T02:03:16.737Z,99236.19
2023-03-12T02:05:54.956Z,99295.41
2023-03-12T02:08:24.578Z,99224.16
2023-03-12T02:10:51.338Z,99224.28
2023-03-12T02:13:19.020Z,99278.19
2023-03-12T02:15:46.224Z,99290.94
2023-03-12T02:18:16.713Z,99247.97
2023-03-12T02:20:52.434Z,99286.94
2023-03-12T02:23:27.906Z,99257.22
2023-03-12T02:25:56.661Z,99238.41
2023-03-12T02:28:26.817Z,99232.41
2023-03-12T02:30:58.754Z,99265.66
2023-03-12T02:33:26.171Z,99187.03
2023-03-12T02:35:53.225Z,99189.44
2023-03-12T02:38:44.596Z,99235.50
2023-03-12T02:41:20.085Z,99232.06
2023-03-12T02:43:51.978Z,99121.34
2023-03-12T02:46:18.795Z,99135.31
2023-03-12T02:48:45.556Z,99164.06
2023-03-12T02:51:12.300Z,99195.75
2023-03-12T02:53:39.078Z,99163.66
2023-03-12T02:56:07.106Z,99136.50
2023-03-12T02:58:33.869Z,99133.50
2023-03-12T03:01:00.787Z,99145.25
2023-03-12T03:03:27.563Z,99159.41
2023-03-12T03:05:54.412Z,99118.22
2023-03-12T03:08:21.139Z,99109.41
2023-03-12T03:10:47.786Z,99073.03
2023-03-12T03:13:14.465Z,99062.66
2023-03-12T03:15:41.261Z,99079.28
2023-03-12T03:18:08.017Z,99060.91
2023-03-12T03:20:34.900Z,99033.97
2023-03-12T03:23:01.689Z,99048.13
2023-03-12T03:25:28.813Z,99023.41
2023-03-12T03:27:56.060Z,99002.88
2023-03-12T03:30:22.915Z,99031.44
2023-03-12T03:32:50.218Z,99078.38
2023-03-12T03:35:17.667Z,99047.59
2023-03-12T03:37:44.545Z,99031.34
2023-03-12T03:40:12.480Z,99034.88
2023-03-12T03:42:40.237Z,99033.16
2023-03-12T03:45:07.743Z,99000.94
2023-03-12T03:47:34.453Z,99010.34
2023-03-12T03:50:01.182Z,98996.72
2023-03-12T03:52:28.024Z,99025.09
2023-03-12T03:54:54.848Z,98959.78
2023-03-12T03:57:21.579Z,98958.34
2023-03-12T03:59:48.248Z,99044.84
2023-03-12T04:02:14.954Z,98964.19
2023-03-12T04:04:41.721Z,98970.84
2023-03-12T04:07:08.463Z,98964.44
2023-03-12T04:09:35.161Z,98973.66
2023-03-12T04:12:01.914Z,98977.66
2023-03-12T04:14:28.670Z,98945.78
2023-03-12T04:16:55.354Z,98942.78
2023-03-12T04:19:22.081Z,98936.75
2023-03-12T04:21:48.794Z,98889.84
2023-03-12T04:24:17.173Z,98966.66
2023-03-12T04:26:43.972Z,98916.13
2023-03-12T04:29:10.666Z,98888.56
2023-03-12T04:31:37.432Z,98910.44
2023-03-12T04:34:04.369Z,98890.47
2023-03-12T04:36:31.125Z,98898.47
2023-03-12T04:38:57.792Z,98903.72
2023-03-12T04:41:24.622Z,98899.25
2023-03-12T04:43:51.357Z,98937.94
2023-03-12T04:46:18.247Z,98859.16
2023-03-12T04:48:45.070Z,98896.28
2023-03-12T04:51:11.733Z,98878.72
2023-03-12T04:53:40.634Z,98925.50
2023-03-12T04:56:07.856Z,98893.06
2023-03-12T04:58:35.944Z,98879.44
2023-03-12T05:01:02.774Z,98834.44
2023-03-12T05:03:29.632Z,98832.56
2023-03-12T05:05:56.366Z,98834.31
2023-03-12T05:08:23.142Z,98865.78
2023-03-12T05:10:50.150Z,98886.75
2023-03-12T05:13:22.791Z,98901.81
2023-03-12T05:15:50.956Z,98860.81
2023-03-12T05:18:17.996Z,98862.47
2023-03-12T05:20:44.777Z,98890.06
2023-03-12T05:23:11.545Z,98868.13
2023-03-12T05:25:41.690Z,98828.78
2023-03-12T05:28:08.490Z,98795.75
2023-03-12T05:30:35.278Z,98861.25
2023-03-12T05:33:02.015Z,98805.31
2023-03-12T05:35:28.741Z,98808.94
2023-03-12T05:37:55.479Z,98839.41
2023-03-12T05:40:22.138Z,98816.47
2023-03-12T05:42:48.861Z,98810.53
2023-03-12T05:45:15.690Z,98792.25
2023-03-12T05:47:42.373Z,98781.44
2023-03-12T05:50:11.398Z,98793.00
2023-03-12T05:52:38.158Z,98786.91
2023-03-12T05:55:05.446Z,98779.41
2023-03-12T05:57:32.161Z,98817.22
2023-03-12T05:59:58.894Z,98800.00
2023-03-12T06:02:25.586Z,98792.38
2023-03-12T06:04:52.328Z,98759.44
2023-03-12T06:07:19.068Z,98824.47
2023-03-12T06:09:45.730Z,98777.00
2023-03-12T06:12:12.380Z,98780.56
2023-03-12T06:14:39.333Z,98792.44
2023-03-12T06:17:06.118Z,98777.28
2023-03-12T06:19:32.860Z,98799.56
2023-03-12T06:21:59.607Z,98778.97
2023-03-12T06:24:26.310Z,98823.41
2023-03-12T06:26:53.020Z,98778.41
2023-03-12T06:29:19.773Z,98772.13
2023-03-12T06:31:48.361Z,98746.28
2023-03-12T06:34:16.897Z,98754.03
2023-03-12T06:36:43.888Z,98821.44
2023-03-12T06:39:10.608Z,98739.44
2023-03-12T06:41:37.418Z,98806.38
2023-03-12T06:44:06.559Z,98708.88
2023-03-12T06:46:33.591Z,98744.59
2023-03-12T06:49:00.335Z,98750.22
2023-03-12T06:51:27.006Z,98768.34
2023-03-12T06:53:53.765Z,98753.19
2023-03-12T06:56:20.565Z,98774.72
2023-03-12T06:58:47.220Z,98746.13
2023-03-12T07:01:14.032Z,98737.06
2023-03-12T07:03:40.802Z,98713.53
2023-03-12T07:06:14.571Z,98792.09
2023-03-12T07:08:41.374Z,98758.06
2023-03-12T07:11:08.136Z,98754.53
2023-03-12T07:13:35.355Z,98739.84
2023-03-12T07:16:03.118Z,98743.75
2023-03-12T07:18:29.949Z,98791.38
2023-03-12T07:20:56.623Z,98752.94
2023-03-12T07:23:23.620Z,98733.72
2023-03-12T07:25:50.701Z,98753.53
2023-03-12T07:28:18.170Z,98782.31
2023-03-12T07:30:50.529Z,98772.19
2023-03-12T07:33:21.961Z,98775.69
2023-03-12T07:35:51.532Z,98743.13
2023-03-12T07:38:18.969Z,98726.13
2023-03-12T07:40:50.265Z,98701.66
2023-03-12T07:43:19.078Z,98683.84
2023-03-12T07:45:47.063Z,98695.50
2023-03-12T07:48:14.229Z,98670.81
2023-03-12T07:50:41.957Z,98764.00
2023-03-12T07:53:08.870Z,98752.69
2023-03-12T07:55:35.734Z,98706.94
2023-03-12T07:58:02.934Z,98707.69
2023-03-12T08:00:30.911Z,98733.34
2023-03-12T08:02:58.125Z,98715.94
2023-03-12T08:05:25.395Z,98724.75
2023-03-12T08:07:53.000Z,98722.75
2023-03-12T08:10:21.254Z,98715.84
2023-03-12T08:12:49.105Z,98678.19
2023-03-12T08:15:16.445Z,98729.94
2023-03-12T08:17:43.290Z,98717.13
2023-03-12T08:20:10.964Z,98709.09
2023-03-12T08:22:38.720Z,98670.28
2023-03-12T08:25:06.619Z,98732.16
2023-03-12T08:27:34.071Z,98720.81
2023-03-12T08:30:00.810Z,98717.13
2023-03-12T08:32:27.726Z,98677.06
2023-03-12T08:34:54.594Z,98716.28
2023-03-12T08:37:21.407Z,98672.78
2023-03-12T08:39:48.110Z,98639.72
2023-03-12T08:42:14.784Z,98661.66
2023-03-12T08:44:41.543Z,98633.06
2023-03-12T08:47:08.242Z,98703.16
2023-03-12T08:49:34.918Z,98651.59
2023-03-12T08:52:01.984Z,98698.97
2023-03-12T08:54:28.742Z,98649.72
2023-03-12T08:56:55.476Z,98651.56
2023-03-12T08:59:23.593Z,98650.66
2023-03-12T09:01:50.531Z,98642.81
2023-03-12T09:04:17.358Z,98669.44
2023-03-12T09:06:44.193Z,98620.56
2023-03-12T09:09:10.924Z,98649.63
2023-03-12T09:11:39.809Z,98674.56
2023-03-12T09:16:53.854Z,98706.44
2023-03-12T09:19:21.254Z,98688.78
2023-03-12T09:21:48.008Z,98670.28
2023-03-12T09:24:14.966Z,98704.38
2023-03-12T09:26:41.685Z,98664.75
2023-03-12T09:29:08.490Z,98623.72
2023-03-12T09:31:36.569Z,98674.69
2023-03-12T09:34:04.491Z,98648.47
2023-03-12T09:36:31.234Z,98668.56
2023-03-12T09:38:57.936Z,98648.16
2023-03-12T09:41:28.999Z,98667.34
2023-03-12T09:44:09.391Z,98671.13
2023-03-12T09:46:46.414Z,98699.00
2023-03-12T09:49:44.875Z,98704.25
2023-03-12T09:52:56.106Z,98674.72
2023-03-12T09:55:24.406Z,98649.75
2023-03-12T09:57:52.120Z,98708.16
2023-03-12T10:00:23.015Z,98707.72
2023-03-12T10:03:16.776Z,98654.78
2023-03-12T10:05:46.723Z,98706.56
2023-03-12T10:08:24.738Z,98698.16
2023-03-12T10:11:22.435Z,98714.66
2023-03-12T10:13:48.933Z,98692.50
2023-03-12T10:16:42.074Z,98638.22
2023-03-12T10:19:15.118Z,98709.06
2023-03-12T10:22:08.495Z,98695.50
2023-03-12T10:24:56.514Z,98702.28
2023-03-12T10:27:27.833Z,98699.78
2023-03-12T10:29:56.808Z,98681.47
2023-03-12T10:32:41.506Z,98642.44
2023-03-12T10:35:21.983Z,98670.94
2023-03-12T10:37:54.292Z,98698.88
2023-03-12T10:40:27.160Z,98690.06
2023-03-12T10:42:54.165Z,98628.66
2023-03-12T10:45:32.521Z,98635.78
2023-03-12T10:48:08.863Z,98697.13
2023-03-12T10:50:38.119Z,98703.31
2023-03-12T10:53:20.433Z,98675.53
2023-03-12T10:56:10.323Z,98649.97
2023-03-12T10:58:38.396Z,98681.00
2023-03-12T11:01:16.253Z,98720.03
2023-03-12T11:03:44.067Z,98667.53
2023-03-12T11:06:24.774Z,98686.47
2023-03-12T11:09:16.610Z,98710.09
2023-03-12T11:11:47.576Z,98681.09
2023-03-12T11:14:21.799Z,98618.50
2023-03-12T11:16:50.015Z,98699.19
2023-03-12T11:19:35.409Z,98652.44
2023-03-12T11:22:05.188Z,98682.34
2023-03-12T11:24:31.985Z,98691.38
2023-03-12T11:27:10.901Z,98715.13
2023-03-12T11:29:47.185Z,98709.94
2023-03-12T11:32:30.187Z,98689.50
2023-03-12T11:34:57.508Z,98716.25
2023-03-12T11:37:52.057Z,98674.91
2023-03-12T11:40:33.062Z,98696.06
2023-03-12T11:43:40.225Z,98725.78
2023-03-12T11:47:07.164Z,98728.56
2023-03-12T11:50:00.091Z,98719.19
2023-03-12T11:52:41.489Z,98702.88
2023-03-12T11:55:31.864Z,98681.41
2023-03-12T11:58:01.477Z,98716.41
2023-03-12T12:00:49.476Z,98675.28
2023-03-12T12:03:53.763Z,98722.88
2023-03-12T12:06:23.531Z,98718.31
2023-03-12T12:09:17.504Z,98724.44
2023-03-12T12:12:16.520Z,98718.31
2023-03-12T12:14:49.125Z,98711.09
2023-03-12T12:17:54.499Z,98698.03
2023-03-12T12:21:00.300Z,98701.47
2023-03-12T12:23:43.565Z,98702.91
2023-03-12T12:26:13.148Z,98691.28
2023-03-12T12:28:39.759Z,98702.19
2023-03-12T12:31:24.270Z,98658.28
2023-03-12T12:34:09.575Z,98683.59
2023-03-12T12:36:36.908Z,98676.25
2023-03-12T12:39:19.922Z,98605.44
2023-03-12T12:41:53.319Z,98612.56
2023-03-12T12:44:49.978Z,98618.31
2023-03-12T12:47:22.744Z,98640.00
2023-03-12T12:49:57.701Z,98671.88
2023-03-12T12:52:26.210Z,98667.38
2023-03-12T12:55:14.474Z,98682.72
2023-03-12T12:58:02.270Z,98609.69
2023-03-12T13:00:40.997Z,98663.72
2023-03-12T13:03:14.382Z,98600.28
2023-03-12T13:05:47.342Z,98608.34
2023-03-12T13:08:56.705Z,98676.00
2023-03-12T13:11:24.821Z,98671.09
2023-03-12T13:14:11.460Z,98658.88
2023-03-12T13:16:49.200Z,98655.63
2023-03-12T13:19:18.624Z,98645.84
2023-03-12T13:22:05.203Z,98581.84
2023-03-12T13:24:51.910Z,98612.38
2023-03-12T13:27:25.801Z,98595.66
2023-03-12T13:29:57.354Z,98572.75
2023-03-12T13:32:36.324Z,98607.16
2023-03-12T13:35:18.481Z,98612.59
2023-03-12T13:37:54.163Z,98616.34
2023-03-12T13:40:30.113Z,98603.72
2023-03-12T13:43:09.881Z,98552.72
2023-03-12T13:45:59.882Z,98596.47
2023-03-12T13:48:27.536Z,98594.91
2023-03-12T13:50:59.888Z,98535.84
2023-03-12T13:53:33.758Z,98580.84
2023-03-12T13:56:09.734Z,98577.22
2023-03-12T13:59:04.561Z,98581.31
2023-03-12T14:01:43.533Z,98583.53
2023-03-12T14:04:33.150Z,98571.81
2023-03-12T14:07:09.914Z,98574.38
2023-03-12T14:10:07.020Z,98568.91
2023-03-12T14:12:57.343Z,98483.59
2023-03-12T14:15:44.844Z,98518.50
2023-03-12T14:18:20.871Z,98547.06
2023-03-12T14:20:55.283Z,98523.56
2023-03-12T14:23:25.144Z,98506.25
2023-03-12T14:25:57.006Z,98536.13
2023-03-12T14:28:24.570Z,98540.09
2023-03-12T14:31:03.509Z,98547.91
2023-03-12T14:33:36.491Z,98544.81
2023-03-12T14:36:16.997Z,98519.03
2023-03-12T14:38:45.986Z,98473.72
2023-03-12T14:41:29.418Z,98537.53
2023-03-12T14:44:05.041Z,98530.13
2023-03-12T14:46:31.786Z,98474.69
2023-03-12T14:48:58.523Z,98470.00
2023-03-12T14:51:29.200Z,98474.53
2023-03-12T14:53:57.152Z,98464.38
2023-03-12T14:56:24.743Z,98509.75
2023-03-12T14:58:52.052Z,98442.66
2023-03-12T15:01:22.146Z,98483.06
2023-03-12T15:03:52.824Z,98442.22
2023-03-12T15:06:30.121Z,98450.41
2023-03-12T15:08:57.623Z,98490.22
2023-03-12T15:11:27.798Z,98487.31
2023-03-12T15:13:56.298Z,98447.94
2023-03-12T15:16:24.143Z,98473.44
2023-03-12T15:18:51.465Z,98443.59
2023-03-12T15:21:18.383Z,98445.03
2023-03-12T15:23:47.539Z,98429.88
2023-03-12T15:26:20.247Z,98463.91
2023-03-12T15:29:02.129Z,98431.34
2023-03-12T15:31:48.413Z,98463.91
2023-03-12T15:34:34.185Z,98412.22
2023-03-12T15:37:03.172Z,98437.47
2023-03-12T15:39:40.814Z,98439.97
2023-03-12T15:42:10.337Z,98394.63
2023-03-12T15:44:52.043Z,98407.63
2023-03-12T15:47:22.197Z,98388.69
2023-03-12T15:49:56.644Z,98417.00
2023-03-12T15:52:24.904Z,98421.19
2023-03-12T15:55:12.797Z,98420.84
2023-03-12T15:57:54.152Z,98389.28
2023-03-12T16:00:43.068Z,98434.81
2023-03-12T16:03:21.473Z,98427.38
2023-03-12T16:05:51.268Z,98407.94
2023-03-12T16:08:38.284Z,98435.31
2023-03-12T16:11:10.908Z,98417.28
2023-03-12T16:13:37.726Z,98363.19
2023-03-12T16:16:04.717Z,98435.13
2023-03-12T16:18:31.600Z,98383.03
2023-03-12T16:20:58.271Z,98321.19
2023-03-12T16:23:24.968Z,98351.34
2023-03-12T16:25:54.495Z,98412.78
2023-03-12T16:28:22.535Z,98375.88
2023-03-12T16:30:50.312Z,98330.03
2023-03-12T16:33:20.627Z,98414.38
2023-03-12T16:35:48.129Z,98365.75
2023-03-12T16:38:15.102Z,98342.16
2023-03-12T16:40:48.665Z,98354.38
2023-03-12T16:43:19.848Z,98409.13
2023-03-12T16:45:50.300Z,98401.84
2023-03-12T16:48:22.229Z,98383.06
2023-03-12T16:50:51.393Z,98313.19
2023-03-12T16:53:19.470Z,98373.88
2023-03-12T16:55:51.111Z,98382.44
2023-03-12T16:58:21.004Z,98315.81
2023-03-12T17:00:48.790Z,98356.44
2023-03-12T17:03:34.363Z,98386.44
2023-03-12T17:06:02.393Z,98346.78
2023-03-12T17:08:29.438Z,98380.88
2023-03-12T17:10:57.444Z,98322.81
2023-03-12T17:13:27.021Z,98233.31
2023-03-12T17:15:54.481Z,98313.59
2023-03-12T17:18:21.968Z,98256.19
2023-03-12T17:20:52.001Z,98290.13
2023-03-12T17:23:26.624Z,98214.84
2023-03-12T17:25:53.494Z,98252.75
2023-03-12T17:28:20.362Z,98238.25
2023-03-12T17:30:47.615Z,98280.19
2023-03-12T17:33:16.713Z,98229.56
2023-03-12T17:35:43.728Z,98270.41
2023-03-12T17:38:11.604Z,98289.03
2023-03-12T17:40:43.208Z,98326.63
2023-03-12T17:43:10.758Z,98319.41
2023-03-12T17:45:37.607Z,98305.09
2023-03-12T17:48:04.971Z,98311.59
2023-03-12T17:50:31.941Z,98255.88
2023-03-12T17:52:58.780Z,98269.84
2023-03-12T17:55:25.845Z,98318.06
2023-03-12T17:57:52.578Z,98246.31
2023-03-12T18:00:22.056Z,98256.91
2023-03-12T18:02:49.356Z,98322.34
2023-03-12T18:05:16.482Z,98319.53
2023-03-12T18:07:43.374Z,98245.78
2023-03-12T18:10:11.239Z,98235.09
2023-03-12T18:12:39.167Z,98294.34
2023-03-12T18:15:15.399Z,98314.56
2023-03-12T18:17:46.155Z,98234.72
2023-03-12T18:20:17.899Z,98260.44
2023-03-12T18:22:48.053Z,98264.63
2023-03-12T18:25:15.035Z,98216.34
2023-03-12T18:27:41.730Z,98249.00
2023-03-12T18:30:11.677Z,98213.94
2023-03-12T18:32:39.127Z,98288.56
2023-03-12T18:35:07.618Z,98253.84
2023-03-12T18:37:34.661Z,98254.31
2023-03-12T18:40:01.431Z,98249.94
2023-03-12T18:42:28.158Z,98263.81
2023-03-12T18:44:54.912Z,98208.78
2023-03-12T18:47:21.600Z,98221.28
2023-03-12T18:49:48.476Z,98251.44
2023-03-12T18:52:15.183Z,98247.88
2023-03-12T18:54:41.918Z,98218.56
2023-03-12T18:57:08.698Z,98200.34
2023-03-12T18:59:35.424Z,98212.72
2023-03-12T19:02:02.151Z,98205.00
2023-03-12T19:04:29.008Z,98201.78
2023-03-12T19:06:55.816Z,98198.44
2023-03-12T19:09:22.618Z,98186.34
2023-03-12T19:11:49.942Z,98163.72
2023-03-12T19:14:16.759Z,98161.19
2023-03-12T19:16:43.631Z,98185.34
2023-03-12T19:19:10.369Z,98178.84
2023-03-12T19:21:37.094Z,98153.63
2023-03-12T19:24:04.174Z,98206.38
2023-03-12T19:26:30.902Z,98192.00
2023-03-12T19:28:57.664Z,98187.06
2023-03-12T19:31:25.457Z,98183.56
2023-03-12T19:33:52.502Z,98207.97
2023-03-12T19:36:19.337Z,98179.50
2023-03-12T19:38:46.196Z,98176.81
2023-03-12T19:41:13.008Z,98189.91
2023-03-12T19:43:40.913Z,98188.22
2023-03-12T19:46:08.034Z,98210.56
2023-03-12T19:48:34.760Z,98214.72
2023-03-12T19:51:09.043Z,98191.53
2023-03-12T19:53:36.270Z,98204.63
2023-03-12T19:56:03.098Z,98163.06
2023-03-12T19:58:29.936Z,98146.50
2023-03-12T20:01:01.268Z,98156.13
2023-03-12T20:03:29.095Z,98148.97
2023-03-12T20:05:56.901Z,98176.72
2023-03-12T20:08:27.931Z,98181.19
2023-03-12T20:11:02.299Z,98165.56
2023-03-12T20:13:29.078Z,98145.34
2023-03-12T20:15:55.781Z,98179.28
2023-03-12T20:18:22.534Z,98138.78
2023-03-12T20:20:49.240Z,98128.03
2023-03-12T20:23:15.914Z,98161.31
2023-03-12T20:25:42.655Z,98144.81
2023-03-12T20:28:10.927Z,98160.38
2023-03-12T20:30:40.709Z,98078.97
2023-03-12T20:33:08.539Z,98133.22
2023-03-12T20:35:36.426Z,98162.88
2023-03-12T20:38:03.821Z,98163.16
2023-03-12T20:40:30.738Z,98120.59
2023-03-12T20:42:57.455Z,98086.63
2023-03-12T20:45:24.305Z,98123.78
2023-03-12T20:47:51.166Z,98149.94
2023-03-12T20:50:17.950Z,98078.50
2023-03-12T20:52:45.119Z,98056.41
2023-03-12T20:55:11.905Z,98083.50
2023-03-12T20:57:38.623Z,98089.03
2023-03-12T21:00:05.868Z,98088.28
2023-03-12T21:02:32.688Z,98033.81
2023-03-12T21:04:59.440Z,98033.81
2023-03-12T21:07:26.188Z,98096.81
2023-03-12T21:09:52.876Z,98073.31
2023-03-12T21:12:19.591Z,98064.06
2023-03-12T21:14:46.267Z,98022.44
2023-03-12T21:17:13.975Z,98034.72
2023-03-12T21:19:41.843Z,98076.22
2023-03-12T21:22:09.327Z,98053.91
2023-03-12T21:24:36.931Z,98060.41
2023-03-12T21:27:03.758Z,98049.66
2023-03-12T21:29:30.428Z,98043.44
2023-03-12T21:31:57.586Z,97996.88
2023-03-12T21:34:24.466Z,98034.38
2023-03-12T21:36:51.125Z,98035.31
2023-03-12T21:39:18.110Z,98015.31
2023-03-12T21:41:45.218Z,98006.16
2023-03-12T21:44:13.003Z,98000.44
2023-03-12T21:46:41.071Z,97992.13
2023-03-12T21:49:07.846Z,97992.00
2023-03-12T21:51:34.535Z,97971.59
2023-03-12T21:54:01.296Z,98003.97
2023-03-12T21:56:29.367Z,97963.69
2023-03-12T21:58:57.397Z,98005.63
2023-03-12T22:01:24.878Z,98008.03
2023-03-12T22:03:51.885Z,97992.22
2023-03-12T22:06:18.962Z,97992.22
2023-03-12T22:08:50.004Z,97975.47
2023-03-12T22:11:16.914Z,97983.16
2023-03-12T22:13:44.051Z,97978.34
2023-03-12T22:16:12.553Z,97980.88
2023-03-12T22:18:41.791Z,97927.06
2023-03-12T22:21:13.191Z,97965.34
2023-03-12T22:23:40.008Z,97932.34
2023-03-12T22:26:07.368Z,97964.53
2023-03-12T22:28:34.799Z,97918.25
2023-03-12T22:31:04.427Z,97936.03
2023-03-12T22:33:31.409Z,97903.25
2023-03-12T22:35:58.874Z,97865.47
2023-03-12T22:38:25.966Z,97918.78
2023-03-12T22:40:55.387Z,97868.69
2023-03-12T22:43:22.427Z,97846.84
2023-03-12T22:45:53.873Z,97906.88
2023-03-12T22:48:20.591Z,97843.53
2023-03-12T22:50:56.388Z,97823.69
2023-03-12T22:53:23.426Z,97852.09
2023-03-12T22:55:57.719Z,97867.47
2023-03-12T22:58:24.676Z,97814.44
2023-03-12T23:00:57.447Z,97866.13
2023-03-12T23:03:24.138Z,97855.41
2023-03-12T23:05:50.767Z,97808.81
2023-03-12T23:08:17.425Z,97841.06
2023-03-12T23:10:51.452Z,97834.38
2023-03-12T23:13:18.145Z,97795.19
2023-03-12T23:15:44.799Z,97822.31
2023-03-12T23:18:11.481Z,97816.28
2023-03-12T23:20:38.115Z,97760.97
2023-03-12T23:23:04.841Z,97759.63
2023-03-12T23:25:31.529Z,97747.16
2023-03-12T23:27:58.180Z,97749.72
2023-03-12T23:30:24.837Z,97747.63
2023-03-12T23:32:51.630Z,97726.13
2023-03-12T23:35:18.478Z,97752.00
2023-03-12T23:37:48.593Z,97751.22
2023-03-12T23:40:17.169Z,97750.81
2023-03-12T23:42:44.481Z,97749.66
2023-03-12T23:45:12.484Z,97724.41
2023-03-12T23:47:39.192Z,97701.50
2023-03-12T23:50:06.560Z,97696.19
2023-03-12T23:52:33.227Z,97621.97
2023-03-12T23:54:59.900Z,97661.34
2023-03-12T23:57:26.959Z,97671.50
2023-03-12T23:59:53.623Z,97629.66
